Time;durP1;ratioP1;P1;durP2;ratioP2;P2;SDS_P1;SDS_P2;PMS_P1;PMS_P2;Temp;Humidity;BMP_temperature;BMP_pressure;BME280_temperature;BME280_humidity;BME280_pressure;Samples;Min_cycle;Max_cycle;Signal;HPM_P1;HPM_P2
2023/12/28 00:03:53;;;;;;;17.90;14.60;;;;;;;;;;10132890;28;20467;-74
2023/12/28 00:08:45;;;;;;;19.10;14.13;;;;;;;;;;10128003;28;20040;-74
2023/12/28 00:13:51;;;;;;;17.23;13.80;;;;;;;;;;10136202;28;20052;-74
2023/12/28 00:18:42;;;;;;;19.30;13.07;;;;;;;;;;10134191;28;20040;-73
2023/12/28 00:23:35;;;;;;;20.40;16.35;;;;;;;;;;10126127;28;20041;-74
2023/12/28 00:28:26;;;;;;;15.30;13.70;;;;;;;;;;10119937;28;20048;-73
2023/12/28 00:33:18;;;;;;;18.38;13.85;;;;;;;;;;10133068;28;20064;-73
2023/12/28 00:38:10;;;;;;;17.98;14.02;;;;;;;;;;10146539;28;20391;-74
2023/12/28 00:43:02;;;;;;;18.13;16.33;;;;;;;;;;10132923;28;20053;-73
2023/12/28 00:47:56;;;;;;;24.52;17.98;;;;;;;;;;10141179;28;20463;-74
2023/12/28 00:52:49;;;;;;;23.38;19.75;;;;;;;;;;10119252;28;20069;-74
2023/12/28 00:57:41;;;;;;;18.55;14.88;;;;;;;;;;10120695;28;20418;-74
2023/12/28 01:02:33;;;;;;;20.80;18.10;;;;;;;;;;10144055;28;20495;-74
2023/12/28 01:07:25;;;;;;;22.55;18.63;;;;;;;;;;10142812;28;20048;-73
2023/12/28 01:12:17;;;;;;;20.48;17.88;;;;;;;;;;10142941;28;20459;-74
2023/12/28 01:17:09;;;;;;;19.65;16.92;;;;;;;;;;10145393;28;20032;-74
2023/12/28 01:22:01;;;;;;;20.10;17.00;;;;;;;;;;10114144;28;20079;-74
2023/12/28 01:26:53;;;;;;;24.20;18.15;;;;;;;;;;10130392;28;20071;-74
2023/12/28 01:31:45;;;;;;;25.55;17.27;;;;;;;;;;10133398;28;20074;-74
2023/12/28 01:36:36;;;;;;;20.63;18.50;;;;;;;;;;10143732;28;20048;-73
2023/12/28 01:41:28;;;;;;;16.20;14.55;;;;;;;;;;10145595;28;20044;-74
2023/12/28 01:46:21;;;;;;;13.98;12.13;;;;;;;;;;10145726;28;20055;-74
2023/12/28 01:51:14;;;;;;;15.27;13.73;;;;;;;;;;10145750;28;20523;-73
2023/12/28 01:56:06;;;;;;;14.05;11.55;;;;;;;;;;10130859;28;20086;-74
2023/12/28 02:00:58;;;;;;;13.50;9.63;;;;;;;;;;10109603;28;20118;-73
2023/12/28 02:05:52;;;;;;;10.48;9.18;;;;;;;;;;10103748;28;20486;-73
2023/12/28 02:10:44;;;;;;;11.65;8.75;;;;;;;;;;10135732;28;20040;-73
2023/12/28 02:15:37;;;;;;;8.20;6.50;;;;;;;;;;10143482;28;20060;-73
2023/12/28 02:20:29;;;;;;;9.32;6.05;;;;;;;;;;10130627;28;20357;-72
2023/12/28 02:25:21;;;;;;;7.63;6.82;;;;;;;;;;10144869;28;20059;-73
2023/12/28 02:30:16;;;;;;;7.43;6.60;;;;;;;;;;10136482;28;20114;-73
2023/12/28 02:35:22;;;;;;;9.55;8.15;;;;;;;;;;10138278;28;20052;-73
2023/12/28 02:40:16;;;;;;;7.93;7.05;;;;;;;;;;10120997;28;20056;-73
2023/12/28 02:45:09;;;;;;;8.00;6.95;;;;;;;;;;10112174;28;20049;-72
2023/12/28 02:50:01;;;;;;;10.95;8.15;;;;;;;;;;10113598;28;20044;-73
2023/12/28 02:54:53;;;;;;;8.88;8.00;;;;;;;;;;10113351;28;20052;-73
2023/12/28 02:59:45;;;;;;;10.70;9.57;;;;;;;;;;10112665;28;20045;-72
2023/12/28 03:04:37;;;;;;;11.05;8.88;;;;;;;;;;10113531;28;20052;-72
2023/12/28 03:09:29;;;;;;;10.00;8.35;;;;;;;;;;10127915;28;20132;-73
2023/12/28 03:14:21;;;;;;;9.20;6.80;;;;;;;;;;10113545;28;20152;-73
2023/12/28 03:19:13;;;;;;;13.73;9.15;;;;;;;;;;10114411;28;20426;-73
2023/12/28 03:24:05;;;;;;;11.13;7.70;;;;;;;;;;10117554;28;20057;-73
2023/12/28 03:28:57;;;;;;;7.32;6.50;;;;;;;;;;10120017;28;20053;-73
2023/12/28 03:33:49;;;;;;;6.72;4.63;;;;;;;;;;10109300;28;20072;-73
2023/12/28 03:38:41;;;;;;;6.80;5.18;;;;;;;;;;10112416;28;20087;-73
2023/12/28 03:43:34;;;;;;;8.02;4.78;;;;;;;;;;10110585;28;20063;-73
2023/12/28 03:48:26;;;;;;;5.63;5.00;;;;;;;;;;10112851;28;20111;-73
2023/12/28 03:53:18;;;;;;;5.95;5.35;;;;;;;;;;10112026;28;20132;-73
2023/12/28 03:58:10;;;;;;;8.40;4.53;;;;;;;;;;10110828;28;20115;-73
2023/12/28 04:03:02;;;;;;;14.85;5.90;;;;;;;;;;10110609;28;20037;-73
2023/12/28 04:07:54;;;;;;;7.25;6.47;;;;;;;;;;10123873;28;20434;-73
2023/12/28 04:12:47;;;;;;;5.60;5.03;;;;;;;;;;10110904;28;20140;-73
2023/12/28 04:17:39;;;;;;;7.35;5.47;;;;;;;;;;10110761;28;20049;-73
2023/12/28 04:22:30;;;;;;;5.78;5.07;;;;;;;;;;10108510;28;20037;-73
2023/12/28 04:27:22;;;;;;;6.95;5.35;;;;;;;;;;10109038;28;20067;-73
2023/12/28 04:32:14;;;;;;;6.65;5.93;;;;;;;;;;10109958;28;20495;-72
2023/12/28 04:37:08;;;;;;;5.38;4.88;;;;;;;;;;10107887;28;20128;-73
2023/12/28 04:42:00;;;;;;;12.68;5.75;;;;;;;;;;10108198;28;20052;-73
2023/12/28 04:46:53;;;;;;;8.60;6.10;;;;;;;;;;10108187;28;20045;-73
2023/12/28 04:51:45;;;;;;;7.80;6.43;;;;;;;;;;10108061;28;20068;-73
2023/12/28 04:56:37;;;;;;;7.60;6.53;;;;;;;;;;10107078;28;20102;-73
2023/12/28 05:01:31;;;;;;;12.55;7.55;;;;;;;;;;10108193;28;20045;-73
2023/12/28 05:06:23;;;;;;;9.68;5.72;;;;;;;;;;10108500;28;20029;-73
2023/12/28 05:11:15;;;;;;;7.00;5.80;;;;;;;;;;10108220;28;20033;-72
2023/12/28 05:16:07;;;;;;;6.07;5.40;;;;;;;;;;10106171;28;20379;-72
2023/12/28 05:20:59;;;;;;;6.68;5.38;;;;;;;;;;10108404;28;20472;-72
2023/12/28 05:25:51;;;;;;;5.47;4.95;;;;;;;;;;10106703;28;20052;-72
2023/12/28 05:30:43;;;;;;;5.35;4.85;;;;;;;;;;10108725;28;20051;-72
2023/12/28 05:35:35;;;;;;;6.97;6.28;;;;;;;;;;10108084;28;20048;-73
2023/12/28 05:40:27;;;;;;;11.38;6.85;;;;;;;;;;10106904;28;20040;-73
2023/12/28 05:45:18;;;;;;;6.00;5.07;;;;;;;;;;10106968;28;20044;-73
2023/12/28 05:50:12;;;;;;;5.70;5.13;;;;;;;;;;10108456;28;20455;-73
2023/12/28 05:55:04;;;;;;;6.22;5.50;;;;;;;;;;10105662;28;20047;-72
2023/12/28 05:59:57;;;;;;;5.55;5.05;;;;;;;;;;10107307;28;20494;-73
2023/12/28 06:04:49;;;;;;;5.63;5.13;;;;;;;;;;10111638;28;20383;-72
2023/12/28 06:09:41;;;;;;;6.95;4.65;;;;;;;;;;10148633;28;20067;-72
2023/12/28 06:14:33;;;;;;;8.20;7.28;;;;;;;;;;10148330;28;20052;-73
2023/12/28 06:19:25;;;;;;;10.07;8.90;;;;;;;;;;10150291;28;20471;-73
2023/12/28 06:24:17;;;;;;;19.02;14.70;;;;;;;;;;10140367;28;20075;-73
2023/12/28 06:29:10;;;;;;;21.40;15.23;;;;;;;;;;10125916;28;20061;-72
2023/12/28 06:34:05;;;;;;;7.97;6.60;;;;;;;;;;10125422;28;20041;-72
2023/12/28 06:38:58;;;;;;;6.38;5.70;;;;;;;;;;10150120;28;20110;-71
2023/12/28 06:43:50;;;;;;;6.30;5.70;;;;;;;;;;10138383;28;20106;-73
2023/12/28 06:48:43;;;;;;;11.43;7.55;;;;;;;;;;10138233;28;20048;-72
2023/12/28 06:53:35;;;;;;;8.02;7.15;;;;;;;;;;10151507;28;20341;-74
2023/12/28 06:58:27;;;;;;;14.25;12.73;;;;;;;;;;10150965;28;20278;-73
2023/12/28 07:03:19;;;;;;;16.52;14.32;;;;;;;;;;10129221;28;20049;-76
2023/12/28 07:08:11;;;;;;;18.80;13.27;;;;;;;;;;10144949;28;20409;-72
2023/12/28 07:13:03;;;;;;;21.08;17.92;;;;;;;;;;10121052;28;20120;-72
2023/12/28 07:17:55;;;;;;;59.40;36.58;;;;;;;;;;10149479;28;20094;-72
2023/12/28 07:22:47;;;;;;;58.67;44.47;;;;;;;;;;10138538;28;20160;-72
2023/12/28 07:27:39;;;;;;;18.05;15.77;;;;;;;;;;10147088;28;20076;-72
2023/12/28 07:32:31;;;;;;;123.22;96.68;;;;;;;;;;10149053;28;20418;-72
2023/12/28 07:37:23;;;;;;;23.05;17.33;;;;;;;;;;10145655;28;20046;-72
2023/12/28 07:42:15;;;;;;;17.42;12.38;;;;;;;;;;10126997;28;20045;-72
2023/12/28 07:47:07;;;;;;;16.38;11.38;;;;;;;;;;10139315;28;20126;-71
2023/12/28 07:52:01;;;;;;;67.55;56.55;;;;;;;;;;10135073;28;20068;-72
2023/12/28 07:56:52;;;;;;;25.45;20.95;;;;;;;;;;10130079;28;20080;-72
2023/12/28 08:01:45;;;;;;;14.52;12.55;;;;;;;;;;10135220;28;20040;-70
2023/12/28 08:06:37;;;;;;;31.73;21.45;;;;;;;;;;10148154;28;20111;-72
2023/12/28 08:11:29;;;;;;;19.83;14.55;;;;;;;;;;10139385;28;20133;-72
2023/12/28 08:16:21;;;;;;;19.42;13.82;;;;;;;;;;10127042;28;20499;-72
2023/12/28 08:21:12;;;;;;;18.83;14.80;;;;;;;;;;10133922;28;20041;-72
2023/12/28 08:26:04;;;;;;;27.30;18.67;;;;;;;;;;10105363;28;20411;-71
2023/12/28 08:30:57;;;;;;;39.13;27.15;;;;;;;;;;10104151;28;20053;-70
2023/12/28 08:35:48;;;;;;;28.02;20.35;;;;;;;;;;10113043;28;20131;-72
2023/12/28 08:40:40;;;;;;;24.58;21.00;;;;;;;;;;10141337;28;21275;-71
2023/12/28 08:45:34;;;;;;;19.73;17.63;;;;;;;;;;10144438;28;20471;-72
2023/12/28 08:50:26;;;;;;;29.83;21.75;;;;;;;;;;10129899;28;20040;-72
2023/12/28 08:55:18;;;;;;;31.52;24.40;;;;;;;;;;10127620;28;20073;-73
2023/12/28 09:00:11;;;;;;;33.42;26.33;;;;;;;;;;10109990;28;20087;-74
2023/12/28 09:05:03;;;;;;;36.22;30.63;;;;;;;;;;10136489;28;20041;-73
2023/12/28 09:09:54;;;;;;;39.80;31.95;;;;;;;;;;10137370;28;20379;-74
2023/12/28 09:14:46;;;;;;;37.20;31.60;;;;;;;;;;10146044;28;20374;-73
2023/12/28 09:19:38;;;;;;;47.47;36.42;;;;;;;;;;10145406;28;20060;-74
2023/12/28 09:24:30;;;;;;;37.67;32.10;;;;;;;;;;10133030;28;20129;-73
2023/12/28 09:29:22;;;;;;;38.88;32.78;;;;;;;;;;10158360;28;20467;-74
2023/12/28 09:34:14;;;;;;;41.88;31.15;;;;;;;;;;10127000;28;20069;-73
2023/12/28 09:39:08;;;;;;;39.70;32.75;;;;;;;;;;10119328;28;20506;-74
2023/12/28 09:44:12;;;;;;;43.28;34.38;;;;;;;;;;10143121;28;20048;-73
2023/12/28 09:49:04;;;;;;;52.55;39.25;;;;;;;;;;10106220;28;20055;-74
2023/12/28 09:53:57;;;;;;;48.60;39.42;;;;;;;;;;10143784;28;20102;-74
2023/12/28 09:58:50;;;;;;;45.90;34.83;;;;;;;;;;10119248;28;20041;-73
2023/12/28 10:03:43;;;;;;;39.55;34.25;;;;;;;;;;10129114;28;20110;-73
2023/12/28 10:08:35;;;;;;;35.92;30.63;;;;;;;;;;10143854;28;20120;-73
2023/12/28 10:13:28;;;;;;;40.13;34.15;;;;;;;;;;10132039;28;20127;-73
2023/12/28 10:18:19;;;;;;;45.22;37.50;;;;;;;;;;10118307;28;20546;-73
2023/12/28 10:23:12;;;;;;;44.28;38.33;;;;;;;;;;10131531;28;20409;-73
2023/12/28 10:28:06;;;;;;;44.72;39.33;;;;;;;;;;10122782;28;20510;-73
2023/12/28 10:32:58;;;;;;;40.90;34.78;;;;;;;;;;10124395;28;20052;-74
2023/12/28 10:37:55;;;;;;;42.85;36.35;;;;;;;;;;10126250;28;20498;-74
2023/12/28 10:42:58;;;;;;;43.13;33.47;;;;;;;;;;10125590;28;20148;-73
2023/12/28 10:48:03;;;;;;;51.10;40.30;;;;;;;;;;10138261;28;21392;-73
2023/12/28 10:53:00;;;;;;;44.30;32.72;;;;;;;;;;10114241;28;20051;-73
2023/12/28 10:58:11;;;;;;;43.08;36.53;;;;;;;;;;10122018;28;20085;-73
2023/12/28 11:03:03;;;;;;;37.10;32.67;;;;;;;;;;10116328;28;20467;-73
2023/12/28 11:07:58;;;;;;;29.80;23.15;;;;;;;;;;10145068;28;20375;-73
2023/12/28 11:12:54;;;;;;;34.20;26.77;;;;;;;;;;10145405;28;20051;-73
2023/12/28 11:17:46;;;;;;;32.50;26.02;;;;;;;;;;10138102;28;20826;-73
2023/12/28 11:22:38;;;;;;;37.90;27.00;;;;;;;;;;10135582;28;20040;-72
2023/12/28 11:27:34;;;;;;;28.65;22.65;;;;;;;;;;10153471;28;20076;-73
2023/12/28 11:32:27;;;;;;;32.08;20.60;;;;;;;;;;10147065;28;20424;-72
2023/12/28 11:37:20;;;;;;;25.88;23.15;;;;;;;;;;10145074;28;20059;-72
2023/12/28 11:42:12;;;;;;;33.05;25.35;;;;;;;;;;10132783;28;20033;-73
2023/12/28 11:47:31;;;;;;;28.40;22.80;;;;;;;;;;10138599;28;20418;-72
2023/12/28 11:52:30;;;;;;;35.67;27.87;;;;;;;;;;10131169;28;20128;-73
2023/12/28 11:57:23;;;;;;;33.80;24.48;;;;;;;;;;10145908;28;20068;-72
2023/12/28 12:02:15;;;;;;;32.28;26.33;;;;;;;;;;10124405;28;20833;-73
2023/12/28 12:07:07;;;;;;;32.20;23.55;;;;;;;;;;10110508;28;20148;-73
2023/12/28 12:11:59;;;;;;;28.77;23.83;;;;;;;;;;10119217;28;20532;-73
2023/12/28 12:16:52;;;;;;;30.75;23.08;;;;;;;;;;10109425;28;20059;-73
2023/12/28 12:21:44;;;;;;;25.95;21.13;;;;;;;;;;10106884;28;20129;-74
2023/12/28 12:26:36;;;;;;;27.30;23.00;;;;;;;;;;10106683;28;20045;-74
2023/12/28 12:31:28;;;;;;;29.92;24.95;;;;;;;;;;10105887;28;20049;-72
2023/12/28 12:36:21;;;;;;;34.67;24.33;;;;;;;;;;10107411;28;20554;-71
2023/12/28 12:41:13;;;;;;;30.02;25.70;;;;;;;;;;10107717;28;20114;-71
2023/12/28 12:46:05;;;;;;;29.33;24.45;;;;;;;;;;10112095;28;20045;-71
2023/12/28 12:50:57;;;;;;;28.85;25.00;;;;;;;;;;10133043;28;20056;-71
2023/12/28 12:55:54;;;;;;;31.35;26.67;;;;;;;;;;10108747;28;20432;-70
2023/12/28 13:00:46;;;;;;;35.17;26.73;;;;;;;;;;10112339;28;20074;-71
2023/12/28 13:05:39;;;;;;;36.95;26.55;;;;;;;;;;10126863;28;20091;-72
2023/12/28 13:10:31;;;;;;;39.55;33.10;;;;;;;;;;10108100;28;20059;-73
2023/12/28 13:15:23;;;;;;;32.85;28.63;;;;;;;;;;10105639;28;20053;-70
2023/12/28 13:20:15;;;;;;;31.67;26.52;;;;;;;;;;10109377;28;20057;-72
2023/12/28 13:25:07;;;;;;;34.05;24.98;;;;;;;;;;10107521;28;20103;-73
2023/12/28 13:29:59;;;;;;;28.48;24.98;;;;;;;;;;10107848;28;20048;-72
2023/12/28 13:34:52;;;;;;;34.05;24.95;;;;;;;;;;10107666;28;20143;-72
2023/12/28 13:39:44;;;;;;;31.67;26.00;;;;;;;;;;10108934;28;20041;-72
2023/12/28 13:44:36;;;;;;;26.98;23.92;;;;;;;;;;10107811;28;20127;-72
2023/12/28 13:49:28;;;;;;;29.35;26.08;;;;;;;;;;10109320;28;20589;-72
2023/12/28 13:54:20;;;;;;;32.67;27.55;;;;;;;;;;10108735;28;20091;-72
2023/12/28 13:59:13;;;;;;;38.67;27.40;;;;;;;;;;10106535;28;20160;-73
2023/12/28 14:04:05;;;;;;;32.35;25.58;;;;;;;;;;10107047;28;20041;-72
2023/12/28 14:08:57;;;;;;;32.55;27.92;;;;;;;;;;10105732;28;20048;-73
2023/12/28 14:13:49;;;;;;;34.08;28.80;;;;;;;;;;10106484;28;20471;-73
2023/12/28 14:18:42;;;;;;;39.75;34.97;;;;;;;;;;10113158;28;20136;-74
2023/12/28 14:23:37;;;;;;;40.33;33.65;;;;;;;;;;10112297;28;20186;-72
2023/12/28 14:28:31;;;;;;;49.67;37.55;;;;;;;;;;10111385;28;20495;-72
2023/12/28 14:33:23;;;;;;;38.97;34.65;;;;;;;;;;10127862;28;20041;-72
2023/12/28 14:38:15;;;;;;;45.60;36.30;;;;;;;;;;10116729;28;20072;-72
2023/12/28 14:43:07;;;;;;;43.97;37.22;;;;;;;;;;10113487;28;20041;-71
2023/12/28 14:47:59;;;;;;;41.15;35.90;;;;;;;;;;10113162;28;20423;-70
2023/12/28 14:52:51;;;;;;;41.22;36.47;;;;;;;;;;10123877;28;20060;-69
2023/12/28 14:57:44;;;;;;;56.33;45.08;;;;;;;;;;10134760;28;20056;-68
2023/12/28 15:02:36;;;;;;;43.17;36.67;;;;;;;;;;10113035;28;20044;-69
2023/12/28 15:07:28;;;;;;;50.30;37.83;;;;;;;;;;10125437;28;20456;-70
2023/12/28 15:12:20;;;;;;;43.22;38.47;;;;;;;;;;10130768;28;20497;-69
2023/12/28 15:17:12;;;;;;;48.10;40.90;;;;;;;;;;10120356;28;20380;-69
2023/12/28 15:22:05;;;;;;;46.97;37.22;;;;;;;;;;10118501;28;20048;-69
2023/12/28 15:26:57;;;;;;;42.47;36.72;;;;;;;;;;10112158;28;20476;-69
2023/12/28 15:31:49;;;;;;;43.45;38.03;;;;;;;;;;10114442;28;20419;-69
2023/12/28 15:36:42;;;;;;;47.80;42.42;;;;;;;;;;10109969;28;20049;-70
2023/12/28 15:41:34;;;;;;;59.55;44.97;;;;;;;;;;10107167;28;20418;-75
2023/12/28 15:46:26;;;;;;;59.45;44.92;;;;;;;;;;10121346;28;20040;-75
2023/12/28 15:51:18;;;;;;;60.13;45.60;;;;;;;;;;10115702;28;20357;-75
2023/12/28 15:56:10;;;;;;;48.20;43.08;;;;;;;;;;10109275;28;20056;-75
2023/12/28 16:01:10;;;;;;;51.50;46.08;;;;;;;;;;10105505;28;20043;-75
2023/12/28 16:06:03;;;;;;;58.10;46.13;;;;;;;;;;10105850;28;20143;-74
2023/12/28 16:10:55;;;;;;;67.30;56.60;;;;;;;;;;10106019;28;20053;-75
2023/12/28 16:15:50;;;;;;;87.50;63.03;;;;;;;;;;10109188;28;20464;-77
2023/12/28 16:20:43;;;;;;;107.10;75.28;;;;;;;;;;10110267;28;20056;-75
2023/12/28 16:25:34;;;;;;;91.05;67.47;;;;;;;;;;10108686;28;20375;-76
2023/12/28 16:30:26;;;;;;;66.25;54.60;;;;;;;;;;10108847;28;20049;-75
2023/12/28 16:35:18;;;;;;;73.03;56.92;;;;;;;;;;10109263;28;20128;-76
2023/12/28 16:40:10;;;;;;;59.10;52.55;;;;;;;;;;10108336;28;20392;-76
2023/12/28 16:45:03;;;;;;;59.17;51.55;;;;;;;;;;10108276;28;20056;-74
2023/12/28 16:49:55;;;;;;;69.57;57.80;;;;;;;;;;10107548;28;20049;-76
2023/12/28 16:54:47;;;;;;;71.28;52.10;;;;;;;;;;10107817;28;20045;-76
2023/12/28 16:59:39;;;;;;;56.53;50.30;;;;;;;;;;10108165;28;20107;-76
2023/12/28 17:04:31;;;;;;;81.47;69.13;;;;;;;;;;10107542;28;20045;-76
2023/12/28 17:09:23;;;;;;;74.03;57.42;;;;;;;;;;10106805;28;20067;-78
2023/12/28 17:14:15;;;;;;;74.75;57.15;;;;;;;;;;10107017;28;20056;-76
2023/12/28 17:19:08;;;;;;;57.50;50.85;;;;;;;;;;10111097;28;20045;-76
2023/12/28 17:24:00;;;;;;;81.25;64.20;;;;;;;;;;10107724;28;20045;-76
2023/12/28 17:29:05;;;;;;;57.75;51.53;;;;;;;;;;10106512;28;20439;-76
2023/12/28 17:33:58;;;;;;;67.47;55.97;;;;;;;;;;10106757;28;20045;-76
2023/12/28 17:38:51;;;;;;;66.75;57.10;;;;;;;;;;10108498;28;20044;-76
2023/12/28 17:43:48;;;;;;;61.83;55.08;;;;;;;;;;10106481;28;20379;-76
2023/12/28 17:48:43;;;;;;;65.60;56.15;;;;;;;;;;10105363;28;20495;-76
2023/12/28 17:53:35;;;;;;;58.53;52.08;;;;;;;;;;10121118;28;20037;-76
2023/12/28 17:58:27;;;;;;;56.88;50.70;;;;;;;;;;10108832;28;20045;-76
2023/12/28 18:03:19;;;;;;;68.28;60.90;;;;;;;;;;10113948;28;20037;-76
2023/12/28 18:08:13;;;;;;;74.22;63.03;;;;;;;;;;10116291;28;20123;-76
2023/12/28 18:13:06;;;;;;;92.50;72.25;;;;;;;;;;10113811;28;20446;-76
2023/12/28 18:17:59;;;;;;;65.82;58.42;;;;;;;;;;10110721;28;20503;-75
2023/12/28 18:22:51;;;;;;;65.88;55.42;;;;;;;;;;10124895;28;20439;-75
2023/12/28 18:27:43;;;;;;;68.32;58.15;;;;;;;;;;10122461;28;20049;-72
2023/12/28 18:32:35;;;;;;;77.18;62.35;;;;;;;;;;10113532;28;20040;-75
2023/12/28 18:37:27;;;;;;;70.20;62.50;;;;;;;;;;10117016;28;20064;-75
2023/12/28 18:42:20;;;;;;;66.22;56.83;;;;;;;;;;10138527;28;20087;-72
2023/12/28 18:47:12;;;;;;;61.92;53.85;;;;;;;;;;10122733;28;20102;-72
2023/12/28 18:52:04;;;;;;;61.88;54.47;;;;;;;;;;10111743;28;20063;-72
2023/12/28 18:56:56;;;;;;;70.47;61.90;;;;;;;;;;10110699;28;20049;-73
2023/12/28 19:01:49;;;;;;;65.20;57.58;;;;;;;;;;10120127;28;20048;-73
2023/12/28 19:06:41;;;;;;;71.82;54.50;;;;;;;;;;10117958;28;20043;-72
2023/12/28 19:11:33;;;;;;;62.30;54.05;;;;;;;;;;10111383;28;20045;-72
2023/12/28 19:16:25;;;;;;;62.25;55.55;;;;;;;;;;10130852;28;20045;-72
2023/12/28 19:21:21;;;;;;;62.40;55.22;;;;;;;;;;10118093;28;20479;-72
2023/12/28 19:26:13;;;;;;;66.03;53.65;;;;;;;;;;10124270;28;20123;-71
2023/12/28 19:31:05;;;;;;;59.92;53.25;;;;;;;;;;10118107;28;20531;-71
2023/12/28 19:35:57;;;;;;;63.63;56.78;;;;;;;;;;10118109;28;20091;-73
2023/12/28 19:40:49;;;;;;;63.65;55.10;;;;;;;;;;10112171;28;20045;-72
2023/12/28 19:45:43;;;;;;;61.13;54.50;;;;;;;;;;10106726;28;20094;-73
2023/12/28 19:50:36;;;;;;;58.30;52.08;;;;;;;;;;10103763;28;20064;-74
2023/12/28 19:55:28;;;;;;;62.92;55.75;;;;;;;;;;10108951;28;20116;-73
2023/12/28 20:00:20;;;;;;;65.68;57.75;;;;;;;;;;10106167;28;20068;-74
2023/12/28 20:05:12;;;;;;;64.30;56.33;;;;;;;;;;10108106;28;20057;-73
2023/12/28 20:10:05;;;;;;;62.58;54.70;;;;;;;;;;10105547;28;20053;-73
2023/12/28 20:14:59;;;;;;;63.00;56.20;;;;;;;;;;10101972;28;20041;-73
2023/12/28 20:19:51;;;;;;;79.00;63.60;;;;;;;;;;10101577;28;20311;-73
2023/12/28 20:24:43;;;;;;;66.38;59.38;;;;;;;;;;10103718;28;20098;-73
2023/12/28 20:29:35;;;;;;;83.07;74.13;;;;;;;;;;10104943;28;20111;-74
2023/12/28 20:34:27;;;;;;;73.28;63.88;;;;;;;;;;10118382;28;20049;-73
2023/12/28 20:39:19;;;;;;;72.38;59.25;;;;;;;;;;10123428;28;20052;-73
2023/12/28 20:44:12;;;;;;;61.78;54.08;;;;;;;;;;10115135;28;20041;-73
2023/12/28 20:49:04;;;;;;;64.25;55.05;;;;;;;;;;10108899;28;20430;-77
2023/12/28 20:53:56;;;;;;;63.33;56.53;;;;;;;;;;10119246;28;20123;-74
2023/12/28 20:58:48;;;;;;;69.00;58.33;;;;;;;;;;10108193;28;20151;-76
2023/12/28 21:03:39;;;;;;;80.70;64.28;;;;;;;;;;10107004;28;20102;-76
2023/12/28 21:08:31;;;;;;;70.18;57.00;;;;;;;;;;10104058;28;20091;-76
2023/12/28 21:13:27;;;;;;;80.28;59.92;;;;;;;;;;10104642;28;20140;-72
2023/12/28 21:18:19;;;;;;;72.05;59.90;;;;;;;;;;10103564;28;20060;-75
2023/12/28 21:23:21;;;;;;;66.88;54.28;;;;;;;;;;10114523;28;20051;-76
2023/12/28 21:28:13;;;;;;;64.15;52.75;;;;;;;;;;10104606;28;20141;-75
2023/12/28 21:33:05;;;;;;;63.17;55.35;;;;;;;;;;10104642;28;20049;-76
2023/12/28 21:37:57;;;;;;;61.25;54.30;;;;;;;;;;10106979;28;20041;-80
2023/12/28 21:42:49;;;;;;;64.53;57.47;;;;;;;;;;10105555;28;20037;-83
2023/12/28 21:47:45;;;;;;;63.40;55.58;;;;;;;;;;10110468;28;20048;-78
2023/12/28 21:52:37;;;;;;;71.75;60.95;;;;;;;;;;10104147;28;20114;-74
2023/12/28 21:57:29;;;;;;;73.93;58.47;;;;;;;;;;10105480;28;20044;-76
2023/12/28 22:02:20;;;;;;;75.85;65.88;;;;;;;;;;10105139;28;20388;-80
2023/12/28 22:07:12;;;;;;;72.18;61.60;;;;;;;;;;10107020;28;20166;-80
2023/12/28 22:12:04;;;;;;;65.03;53.25;;;;;;;;;;10115947;28;20088;-78
2023/12/28 22:16:56;;;;;;;73.88;62.60;;;;;;;;;;10113261;28;20095;-79
2023/12/28 22:21:49;;;;;;;81.65;67.80;;;;;;;;;;10106393;28;20329;-79
2023/12/28 22:26:42;;;;;;;62.28;55.42;;;;;;;;;;10114577;28;20071;-79
2023/12/28 22:31:34;;;;;;;56.72;47.30;;;;;;;;;;10105508;28;20045;-75
2023/12/28 22:36:26;;;;;;;69.93;56.78;;;;;;;;;;10105375;28;20037;-75
2023/12/28 22:41:18;;;;;;;49.65;42.00;;;;;;;;;;10103762;28;20049;-75
2023/12/28 22:46:11;;;;;;;49.72;43.25;;;;;;;;;;10104471;28;20041;-76
2023/12/28 22:51:03;;;;;;;51.10;44.80;;;;;;;;;;10123468;28;20147;-76
2023/12/28 22:55:55;;;;;;;67.10;56.80;;;;;;;;;;10120687;28;20045;-77
2023/12/28 23:00:47;;;;;;;64.00;55.03;;;;;;;;;;10117134;28;20044;-77
2023/12/28 23:05:40;;;;;;;67.22;58.72;;;;;;;;;;10127652;28;20053;-77
2023/12/28 23:10:32;;;;;;;60.03;50.60;;;;;;;;;;10114425;28;20044;-77
2023/12/28 23:15:26;;;;;;;60.22;53.65;;;;;;;;;;10119317;28;20080;-78
2023/12/28 23:20:18;;;;;;;66.88;57.85;;;;;;;;;;10110535;28;20151;-78
2023/12/28 23:25:15;;;;;;;66.60;55.67;;;;;;;;;;10118454;28;20115;-77
2023/12/28 23:30:11;;;;;;;56.55;42.75;;;;;;;;;;10118529;28;20056;-74
2023/12/28 23:35:04;;;;;;;48.58;40.47;;;;;;;;;;10117517;28;20044;-74
2023/12/28 23:39:56;;;;;;;67.25;53.88;;;;;;;;;;10103979;28;20080;-75
2023/12/28 23:44:48;;;;;;;58.90;51.47;;;;;;;;;;10115984;28;20045;-75
2023/12/28 23:49:40;;;;;;;58.10;51.83;;;;;;;;;;10139461;28;20036;-78
2023/12/28 23:54:35;;;;;;;53.85;45.92;;;;;;;;;;10138262;28;20041;-78
2023/12/28 23:59:27;;;;;;;54.15;46.63;;;;;;;;;;10137771;28;20131;-77
